Time;durP1;ratioP1;P1;durP2;ratioP2;P2;SDS_P1;SDS_P2;PMS_P1;PMS_P2;Temp;Humidity;BMP_temperature;BMP_pressure;BME280_temperature;BME280_humidity;BME280_pressure;Samples;Min_cycle;Max_cycle;Signal;HPM_P1;HPM_P2
2021/12/13 00:01:12;;;;;;;1.50;1.50;;;;;;;1.11;69.21;101320.23;102156;1321;96170;-76
2021/12/13 00:03:43;;;;;;;1.50;1.50;;;;;;;1.04;68.53;101320.39;102041;1321;140413;-76
2021/12/13 00:06:14;;;;;;;1.50;1.50;;;;;;;0.90;69.10;101317.55;102205;1318;109843;-77
2021/12/13 00:08:45;;;;;;;1.40;1.40;;;;;;;0.88;69.08;101324.31;102184;1320;95169;-75
2021/12/13 00:11:20;;;;;;;1.50;1.50;;;;;;;0.85;69.10;101324.06;102197;1317;137794;-77
2021/12/13 00:13:51;;;;;;;1.50;1.50;;;;;;;0.77;69.71;101324.89;102204;1318;108928;-77
2021/12/13 00:16:44;;;;;;;1.50;1.50;;;;;;;0.76;69.64;101326.44;102067;1318;139964;-76
2021/12/13 00:19:20;;;;;;;1.40;1.40;;;;;;;0.69;69.57;101319.59;102180;1317;95695;-77
2021/12/13 00:21:58;;;;;;;1.50;1.50;;;;;;;0.65;70.26;101314.61;101983;1319;139803;-77
2021/12/13 00:24:31;;;;;;;1.70;1.70;;;;;;;0.74;69.79;101318.16;102057;1321;109411;-76
2021/12/13 00:27:03;;;;;;;1.40;1.40;;;;;;;0.78;69.68;101317.57;102170;1316;109318;-77
2021/12/13 00:29:55;;;;;;;1.70;1.70;;;;;;;0.80;70.17;101322.18;101995;1321;140540;-78
2021/12/13 00:33:02;;;;;;;1.50;1.50;;;;;;;0.92;69.51;101326.35;102159;1319;95509;-76
2021/12/13 00:35:51;;;;;;;1.50;1.50;;;;;;;0.94;69.31;101327.48;101989;1318;141747;-76
2021/12/13 00:38:22;;;;;;;1.40;1.40;;;;;;;0.92;69.75;101324.61;102209;1317;110836;-76
2021/12/13 00:41:17;;;;;;;1.40;1.40;;;;;;;0.91;69.22;101327.20;102205;1318;139997;-76
2021/12/13 00:43:54;;;;;;;1.70;1.70;;;;;;;0.92;69.71;101325.65;102176;1319;95583;-76
2021/12/13 00:46:24;;;;;;;1.50;1.50;;;;;;;0.90;68.90;101327.35;102041;1317;139924;-76
2021/12/13 00:48:54;;;;;;;1.50;1.50;;;;;;;0.76;68.96;101326.09;102252;1318;110391;-76
2021/12/13 00:51:28;;;;;;;1.50;1.50;;;;;;;0.68;69.79;101327.77;102249;1318;95341;-76
2021/12/13 00:53:58;;;;;;;1.40;1.40;;;;;;;0.58;69.81;101325.02;102127;1318;139165;-77
2021/12/13 00:56:57;;;;;;;1.50;1.50;;;;;;;0.60;70.11;101322.27;102074;1319;109399;-76
2021/12/13 00:59:29;;;;;;;1.60;1.60;;;;;;;0.52;70.28;101323.45;102108;1318;140571;-76
2021/12/13 01:02:18;;;;;;;1.50;1.50;;;;;;;0.59;71.12;101326.30;102235;1320;95177;-75
2021/12/13 01:05:01;;;;;;;1.50;1.50;;;;;;;0.62;70.63;101326.04;102307;1318;138783;-77
2021/12/13 01:07:59;;;;;;;1.70;1.70;;;;;;;0.67;70.04;101328.26;102013;1318;109460;-77
2021/12/13 01:10:42;;;;;;;1.50;1.50;;;;;;;0.65;70.74;101334.86;102138;1318;140232;-77
2021/12/13 01:13:15;;;;;;;1.60;1.60;;;;;;;0.75;70.41;101334.29;102231;1317;95306;-77
2021/12/13 01:16:38;;;;;;;1.70;1.70;;;;;;;0.80;70.56;101331.27;102130;1317;139029;-77
2021/12/13 01:22:02;;;;;;;1.50;1.50;;;;;;;0.78;69.63;101321.24;102070;1318;139610;-77
2021/12/13 01:25:14;;;;;;;1.60;1.60;;;;;;;0.70;70.23;101319.61;102157;1322;95745;-76
2021/12/13 01:27:43;;;;;;;1.50;1.50;;;;;;;0.71;70.52;101317.89;102153;1317;95209;-76
2021/12/13 01:30:15;;;;;;;1.50;1.50;;;;;;;0.83;70.91;101328.73;102109;1318;139784;-76
2021/12/13 01:32:48;;;;;;;1.50;1.50;;;;;;;1.06;70.28;101334.44;102168;1322;110157;-77
2021/12/13 01:35:20;;;;;;;1.40;1.40;;;;;;;1.11;69.15;101334.73;102093;1318;140425;-77
2021/12/13 01:37:52;;;;;;;1.50;1.50;;;;;;;1.14;69.57;101343.92;102153;1320;95786;-76
2021/12/13 01:40:28;;;;;;;1.50;1.50;;;;;;;1.25;69.20;101342.31;102034;1318;139841;-76
2021/12/13 01:43:05;;;;;;;1.40;1.40;;;;;;;1.15;69.01;101341.70;102205;1317;109727;-76
2021/12/13 01:45:36;;;;;;;1.50;1.50;;;;;;;1.29;69.33;101340.32;102207;1318;95668;-76
2021/12/13 01:48:05;;;;;;;1.50;1.50;;;;;;;1.39;69.41;101337.05;102098;1316;139518;-76
2021/12/13 01:50:47;;;;;;;1.50;1.50;;;;;;;1.36;69.23;101331.40;102257;1322;109321;-77
2021/12/13 01:53:17;;;;;;;1.50;1.50;;;;;;;1.44;69.04;101329.33;101969;1323;139906;-77
2021/12/13 01:55:47;;;;;;;1.40;1.40;;;;;;;1.43;68.43;101323.02;102207;1318;95202;-77
2021/12/13 01:58:43;;;;;;;1.60;1.60;;;;;;;1.44;69.08;101326.71;102084;1320;139243;-72
2021/12/13 02:01:20;;;;;;;1.40;1.40;;;;;;;1.54;68.78;101314.51;102072;1320;110234;-76
2021/12/13 02:03:54;;;;;;;1.40;1.40;;;;;;;1.54;68.54;101309.29;102103;1318;140624;-76
2021/12/13 02:06:28;;;;;;;1.30;1.30;;;;;;;1.51;68.80;101306.23;102226;1318;95836;-76
2021/12/13 02:09:00;;;;;;;1.30;1.30;;;;;;;1.51;68.63;101309.04;102233;1319;95689;-76
2021/12/13 02:11:30;;;;;;;1.30;1.30;;;;;;;1.55;68.75;101308.95;102057;1318;139592;-76
2021/12/13 02:14:10;;;;;;;1.40;1.40;;;;;;;1.56;68.57;101306.52;102231;1319;110767;-76
2021/12/13 02:17:11;;;;;;;1.30;1.30;;;;;;;1.51;68.42;101308.84;102245;1319;139986;-77
2021/12/13 02:19:44;;;;;;;1.40;1.40;;;;;;;1.58;68.51;101311.84;102204;1316;95484;-77
2021/12/13 02:22:31;;;;;;;1.40;1.40;;;;;;;1.60;68.74;101316.63;102105;1320;139898;-76
2021/12/13 02:25:06;;;;;;;1.50;1.50;;;;;;;1.60;68.33;101320.98;102124;1319;110210;-76
2021/12/13 02:27:36;;;;;;;1.40;1.40;;;;;;;1.64;68.79;101317.59;102137;1320;94335;-76
2021/12/13 02:30:15;;;;;;;1.30;1.30;;;;;;;1.73;68.15;101307.48;101960;1317;138990;-77
2021/12/13 02:32:46;;;;;;;1.30;1.30;;;;;;;1.75;67.88;101307.70;102176;1318;109967;-77
2021/12/13 02:35:16;;;;;;;1.40;1.40;;;;;;;1.59;67.77;101315.18;101983;1321;140070;-77
2021/12/13 02:37:45;;;;;;;1.50;1.50;;;;;;;1.58;68.16;101318.65;102116;1320;95244;-77
2021/12/13 02:40:15;;;;;;;1.40;1.40;;;;;;;1.54;67.89;101320.81;102033;1318;139903;-77
2021/12/13 02:42:43;;;;;;;1.40;1.40;;;;;;;1.50;68.47;101317.41;102219;1313;109371;-76
2021/12/13 02:45:29;;;;;;;1.40;1.40;;;;;;;1.51;68.39;101308.00;102146;1319;110250;-76
2021/12/13 02:48:02;;;;;;;1.40;1.40;;;;;;;1.59;68.15;101314.67;102071;1320;139355;-76
2021/12/13 02:50:50;;;;;;;1.40;1.40;;;;;;;1.63;68.08;101317.55;102245;1322;95162;-76
2021/12/13 02:53:45;;;;;;;1.30;1.30;;;;;;;1.65;67.37;101315.14;102202;1319;139437;-77
2021/12/13 02:56:14;;;;;;;1.40;1.40;;;;;;;1.42;67.83;101318.77;102136;1319;110002;-76
2021/12/13 02:58:43;;;;;;;1.50;1.50;;;;;;;1.31;68.47;101322.52;102075;1315;141220;-76
2021/12/13 03:01:18;;;;;;;1.40;1.40;;;;;;;1.46;68.92;101328.67;102040;1323;94890;-76
2021/12/13 03:03:51;;;;;;;1.30;1.30;;;;;;;1.46;67.62;101323.42;102049;1316;140276;-76
2021/12/13 03:06:22;;;;;;;1.40;1.40;;;;;;;1.26;67.78;101325.35;102254;1319;110315;-77
2021/12/13 03:08:58;;;;;;;1.50;1.50;;;;;;;1.20;68.72;101321.17;102250;1322;95367;-76
2021/12/13 03:11:32;;;;;;;1.50;1.50;;;;;;;1.25;68.68;101323.06;102066;1324;139569;-75
2021/12/13 03:14:07;;;;;;;1.70;1.70;;;;;;;1.40;68.77;101317.86;102247;1318;109982;-76
2021/12/13 03:16:43;;;;;;;1.30;1.30;;;;;;;1.48;68.32;101319.46;102116;1321;139940;-76
2021/12/13 03:19:30;;;;;;;1.50;1.50;;;;;;;1.28;68.07;101316.65;102204;1319;95194;-77
2021/12/13 03:22:07;;;;;;;1.50;1.50;;;;;;;1.13;68.75;101321.84;102074;1320;140109;-76
2021/12/13 03:24:35;;;;;;;1.40;1.40;;;;;;;1.15;69.12;101319.47;102215;1319;106768;-77
2021/12/13 03:27:27;;;;;;;1.40;1.40;;;;;;;1.31;68.72;101320.07;102194;1319;110473;-76
2021/12/13 03:29:59;;;;;;;1.50;1.50;;;;;;;1.35;68.09;101318.95;102067;1318;139728;-76
2021/12/13 03:32:39;;;;;;;1.50;1.50;;;;;;;1.20;68.50;101320.31;102219;1319;95798;-76
2021/12/13 03:35:17;;;;;;;1.50;1.50;;;;;;;1.16;68.61;101316.00;102098;1322;140766;-76
2021/12/13 03:38:00;;;;;;;1.40;1.40;;;;;;;1.12;68.27;101315.35;102221;1318;110314;-76
2021/12/13 03:40:30;;;;;;;1.40;1.40;;;;;;;1.16;68.88;101315.47;102014;1321;138943;-77
2021/12/13 03:43:00;;;;;;;1.50;1.50;;;;;;;1.32;68.57;101319.58;102207;1317;95290;-77
2021/12/13 03:45:37;;;;;;;1.40;1.40;;;;;;;1.27;68.21;101319.43;102360;1317;107678;-77
2021/12/13 03:48:10;;;;;;;1.40;1.40;;;;;;;1.19;68.19;101318.16;102190;1317;139896;-77
2021/12/13 03:50:46;;;;;;;1.50;1.50;;;;;;;1.16;68.41;101319.14;101972;1317;95598;-76
2021/12/13 03:53:17;;;;;;;1.40;1.40;;;;;;;1.12;68.38;101314.84;101378;1319;140238;-77
2021/12/13 03:55:48;;;;;;;1.50;1.50;;;;;;;1.13;68.48;101316.98;101574;1319;107876;-77
2021/12/13 03:58:19;;;;;;;1.30;1.30;;;;;;;1.12;68.37;101322.71;101413;1318;139562;-76
2021/12/13 04:00:54;;;;;;;1.60;1.60;;;;;;;1.09;68.69;101325.77;101405;1315;95675;-76
2021/12/13 04:03:24;;;;;;;1.60;1.60;;;;;;;0.97;68.25;101328.43;101365;1318;95269;-77
2021/12/13 04:05:53;;;;;;;1.60;1.60;;;;;;;0.83;68.95;101325.94;101071;1318;140207;-77
2021/12/13 04:08:22;;;;;;;1.50;1.50;;;;;;;0.73;68.90;101327.04;101211;1318;109287;-77
2021/12/13 04:10:54;;;;;;;1.50;1.50;;;;;;;0.72;69.46;101330.52;101272;1316;140213;-77
2021/12/13 04:13:27;;;;;;;1.60;1.60;;;;;;;0.86;69.98;101332.48;101600;1319;95394;-77
2021/12/13 04:16:29;;;;;;;1.60;1.60;;;;;;;1.04;69.56;101331.24;101945;1317;141331;-77
2021/12/13 04:19:07;;;;;;;1.40;1.40;;;;;;;1.23;68.86;101321.59;102158;1316;110346;-77
2021/12/13 04:21:43;;;;;;;1.50;1.50;;;;;;;1.32;68.48;101322.55;102337;1319;95709;-77
2021/12/13 04:24:23;;;;;;;1.60;1.60;;;;;;;1.10;67.64;101318.11;102150;1316;140347;-77
2021/12/13 04:26:55;;;;;;;1.50;1.50;;;;;;;0.93;68.92;101320.96;102083;1320;109471;-77
2021/12/13 04:29:30;;;;;;;1.50;1.50;;;;;;;1.09;68.87;101325.76;102196;1319;139900;-77
2021/12/13 04:32:00;;;;;;;1.50;1.50;;;;;;;0.98;68.52;101328.61;102167;1319;95345;-77
2021/12/13 04:34:29;;;;;;;1.50;1.50;;;;;;;0.80;68.85;101326.53;102078;1321;139708;-77
2021/12/13 04:37:16;;;;;;;1.50;1.50;;;;;;;0.69;69.32;101318.20;102166;1318;109348;-77
2021/12/13 04:39:47;;;;;;;1.50;1.50;;;;;;;0.69;69.55;101319.23;102173;1314;110352;-77
2021/12/13 04:42:18;;;;;;;1.50;1.50;;;;;;;0.66;69.20;101323.02;101944;1320;139959;-77
2021/12/13 04:44:45;;;;;;;1.60;1.60;;;;;;;0.58;69.69;101322.56;102129;1322;95151;-77
2021/12/13 04:47:17;;;;;;;1.60;1.60;;;;;;;0.66;70.06;101320.73;101952;1317;139475;-76
2021/12/13 04:49:55;;;;;;;1.50;1.50;;;;;;;0.79;69.66;101322.33;102245;1320;110528;-76
2021/12/13 04:52:24;;;;;;;1.40;1.40;;;;;;;0.71;68.80;101319.98;102000;1320;140600;-76
2021/12/13 04:54:54;;;;;;;1.50;1.50;;;;;;;0.58;69.46;101323.80;102250;1322;95207;-76
2021/12/13 04:57:23;;;;;;;1.60;1.60;;;;;;;0.74;70.26;101328.11;102181;1318;109083;-76
2021/12/13 04:59:56;;;;;;;1.50;1.50;;;;;;;1.03;69.94;101329.98;102075;1318;140928;-76
2021/12/13 05:02:25;;;;;;;1.60;1.60;;;;;;;1.23;68.81;101325.27;102363;1318;95241;-76
2021/12/13 05:04:59;;;;;;;1.50;1.50;;;;;;;1.29;68.49;101319.67;102185;1320;139701;-76
2021/12/13 05:07:29;;;;;;;1.60;1.60;;;;;;;1.10;68.09;101327.21;102222;1320;109822;-76
2021/12/13 05:09:58;;;;;;;1.60;1.60;;;;;;;0.93;68.60;101328.46;102119;1317;139357;-76
2021/12/13 05:12:28;;;;;;;1.60;1.60;;;;;;;0.94;69.05;101334.64;102207;1320;95140;-76
2021/12/13 05:15:00;;;;;;;1.50;1.50;;;;;;;1.12;68.97;101337.05;102283;1316;95716;-76
2021/12/13 05:17:34;;;;;;;1.90;1.90;;;;;;;1.09;68.42;101335.23;102173;1318;139760;-76
2021/12/13 05:20:14;;;;;;;1.60;1.60;;;;;;;0.91;68.48;101335.59;102233;1320;109761;-76
2021/12/13 05:22:56;;;;;;;1.60;1.60;;;;;;;0.90;69.35;101342.05;102056;1320;140277;-76
2021/12/13 05:25:33;;;;;;;1.50;1.50;;;;;;;0.86;68.48;101344.72;102127;1321;95800;-77
2021/12/13 05:28:10;;;;;;;1.50;1.50;;;;;;;0.75;69.02;101348.95;101828;1320;139065;-77
2021/12/13 05:30:46;;;;;;;1.60;1.60;;;;;;;0.78;69.48;101349.20;102210;1316;109247;-77
2021/12/13 05:33:16;;;;;;;1.60;1.60;;;;;;;0.93;69.20;101356.45;102132;1318;95181;-77
2021/12/13 05:35:51;;;;;;;1.60;1.60;;;;;;;1.12;69.14;101361.19;102146;1317;138899;-77
2021/12/13 05:38:42;;;;;;;1.50;1.50;;;;;;;1.06;68.49;101360.84;102229;1316;109644;-77
2021/12/13 05:41:24;;;;;;;1.50;1.50;;;;;;;0.96;68.66;101355.66;102426;1318;140495;-77
2021/12/13 05:43:58;;;;;;;1.50;1.50;;;;;;;0.88;68.34;101354.37;102243;1319;95273;-77
2021/12/13 05:46:45;;;;;;;1.40;1.40;;;;;;;0.89;69.33;101357.22;102158;1318;139476;-77
2021/12/13 05:49:20;;;;;;;1.60;1.60;;;;;;;0.98;68.83;101361.14;102261;1318;109707;-76
2021/12/13 05:51:51;;;;;;;1.60;1.60;;;;;;;0.98;68.61;101359.23;102433;1318;110407;-76
2021/12/13 05:54:28;;;;;;;1.50;1.50;;;;;;;0.95;68.60;101362.80;102035;1318;139717;-76
2021/12/13 05:57:17;;;;;;;1.50;1.50;;;;;;;0.91;68.91;101368.11;102328;1317;95313;-76
2021/12/13 05:59:51;;;;;;;1.60;1.60;;;;;;;0.96;68.98;101375.07;102022;1318;140540;-76
2021/12/13 06:02:41;;;;;;;1.60;1.60;;;;;;;1.03;68.55;101379.46;102236;1317;110762;-76
2021/12/13 06:05:24;;;;;;;1.50;1.50;;;;;;;1.00;68.74;101380.96;102080;1320;141653;-77
2021/12/13 06:07:56;;;;;;;1.50;1.50;;;;;;;0.84;68.41;101379.63;102245;1318;95813;-76
2021/12/13 06:10:35;;;;;;;1.60;1.60;;;;;;;0.71;69.50;101380.98;102124;1318;140058;-77
2021/12/13 06:13:06;;;;;;;1.60;1.60;;;;;;;0.76;69.80;101383.58;102117;1314;110764;-76
2021/12/13 06:15:38;;;;;;;1.40;1.40;;;;;;;0.91;69.42;101380.70;102205;1315;95161;-77
2021/12/13 06:18:22;;;;;;;1.50;1.50;;;;;;;1.16;69.38;101387.17;102428;1318;139689;-77
2021/12/13 06:20:55;;;;;;;1.60;1.60;;;;;;;1.28;68.75;101391.17;102191;1318;109550;-77
2021/12/13 06:23:26;;;;;;;1.60;1.60;;;;;;;1.25;68.90;101396.54;102107;1318;140537;-77
2021/12/13 06:26:14;;;;;;;1.50;1.50;;;;;;;1.28;68.55;101399.92;102202;1318;95280;-77
2021/12/13 06:28:45;;;;;;;1.50;1.50;;;;;;;1.28;68.38;101404.13;102107;1317;140863;-76
2021/12/13 06:31:18;;;;;;;1.40;1.40;;;;;;;1.28;67.75;101402.23;102266;1318;106723;-77
2021/12/13 06:33:54;;;;;;;1.50;1.50;;;;;;;1.23;68.01;101406.08;102292;1317;110224;-77
2021/12/13 06:36:31;;;;;;;1.50;1.50;;;;;;;1.15;68.15;101403.95;102109;1318;140768;-77
2021/12/13 06:39:07;;;;;;;1.50;1.50;;;;;;;1.07;67.94;101404.24;102286;1321;95190;-76
2021/12/13 06:41:43;;;;;;;1.40;1.40;;;;;;;1.06;68.70;101409.29;103312;1318;140496;-77
2021/12/13 06:44:29;;;;;;;1.50;1.50;;;;;;;1.02;68.62;101413.02;102299;1317;110767;-77
2021/12/13 06:47:13;;;;;;;1.60;1.60;;;;;;;0.96;68.81;101410.77;102134;1319;139497;-77
2021/12/13 06:49:48;;;;;;;1.60;1.60;;;;;;;1.07;68.85;101412.63;102213;1318;95837;-77
2021/12/13 06:52:15;;;;;;;1.50;1.50;;;;;;;1.29;69.13;101420.08;102232;1318;140548;-77
2021/12/13 06:54:45;;;;;;;1.70;1.70;;;;;;;1.45;68.62;101425.08;102232;1318;110127;-77
2021/12/13 06:57:32;;;;;;;1.60;1.60;;;;;;;1.47;68.03;101425.31;102181;1318;95293;-76
2021/12/13 07:00:13;;;;;;;1.50;1.50;;;;;;;1.40;68.15;101425.64;102055;1318;142133;-75
2021/12/13 07:02:45;;;;;;;1.50;1.50;;;;;;;1.38;68.10;101424.19;102093;1319;109207;-76
2021/12/13 07:05:23;;;;;;;1.50;1.50;;;;;;;1.39;67.90;101427.90;102017;1318;139097;-76
2021/12/13 07:07:59;;;;;;;1.60;1.60;;;;;;;1.34;68.38;101430.73;102128;1316;95263;-76
2021/12/13 07:10:33;;;;;;;1.40;1.40;;;;;;;1.45;68.08;101428.05;102100;1317;139995;-77
2021/12/13 07:13:07;;;;;;;1.30;1.30;;;;;;;1.51;67.91;101428.91;102245;1318;109668;-77
2021/12/13 07:15:41;;;;;;;1.50;1.50;;;;;;;1.49;67.65;101433.61;101965;1322;110218;-77
2021/12/13 07:18:28;;;;;;;1.70;1.70;;;;;;;1.36;67.65;101432.89;102041;1317;141714;-77
2021/12/13 07:21:17;;;;;;;1.60;1.60;;;;;;;1.20;67.89;101431.89;101983;1316;95301;-77
2021/12/13 07:23:50;;;;;;;1.50;1.50;;;;;;;1.07;68.47;101433.79;101967;1318;140384;-77
2021/12/13 07:26:49;;;;;;;1.40;1.40;;;;;;;1.18;68.84;101436.91;101989;1317;109281;-77
2021/12/13 07:29:24;;;;;;;1.60;1.60;;;;;;;1.18;68.44;101439.55;101841;1314;139655;-77
2021/12/13 07:32:11;;;;;;;1.40;1.40;;;;;;;1.21;68.91;101442.61;102054;1318;95842;-76
2021/12/13 07:34:48;;;;;;;1.50;1.50;;;;;;;1.23;68.40;101450.87;101966;1318;138908;-77
2021/12/13 07:37:17;;;;;;;1.40;1.40;;;;;;;1.31;68.62;101451.48;102123;1317;109986;-77
2021/12/13 07:39:45;;;;;;;1.40;1.40;;;;;;;1.25;68.52;101456.35;102026;1317;95280;-77
2021/12/13 07:42:14;;;;;;;1.40;1.40;;;;;;;1.14;68.32;101461.12;101806;1321;140569;-77
2021/12/13 07:44:44;;;;;;;1.40;1.40;;;;;;;1.04;68.97;101466.05;101999;1317;109807;-78
2021/12/13 07:47:12;;;;;;;1.40;1.40;;;;;;;0.96;69.12;101464.45;102111;1318;140275;-77
2021/12/13 07:49:49;;;;;;;1.70;1.70;;;;;;;0.95;69.40;101463.18;102216;1318;95597;-77
2021/12/13 07:52:26;;;;;;;1.50;1.50;;;;;;;1.08;69.48;101463.21;102031;1316;139982;-78
2021/12/13 07:54:55;;;;;;;1.50;1.50;;;;;;;1.12;69.01;101466.49;102250;1314;109447;-77
2021/12/13 07:57:30;;;;;;;1.50;1.50;;;;;;;1.12;69.17;101468.92;102228;1319;110773;-77
2021/12/13 07:59:58;;;;;;;1.50;1.50;;;;;;;1.18;68.97;101471.39;102296;1317;139046;-77
2021/12/13 08:02:26;;;;;;;1.50;1.50;;;;;;;1.04;69.34;101474.98;102253;1316;95346;-77
2021/12/13 08:04:59;;;;;;;1.50;1.50;;;;;;;0.99;69.52;101477.30;102090;1317;140678;-77
2021/12/13 08:07:39;;;;;;;1.40;1.40;;;;;;;1.09;69.28;101475.15;102175;1318;110386;-77
2021/12/13 08:10:13;;;;;;;1.60;1.60;;;;;;;1.07;69.56;101474.73;102136;1317;139640;-76
2021/12/13 08:12:44;;;;;;;1.50;1.50;;;;;;;1.24;69.66;101471.20;102269;1314;95556;-76
2021/12/13 08:15:16;;;;;;;1.50;1.50;;;;;;;1.41;68.67;101475.36;102107;1318;109385;-76
2021/12/13 08:17:51;;;;;;;1.40;1.40;;;;;;;1.29;68.35;101473.09;102139;1317;139740;-77
2021/12/13 08:20:24;;;;;;;1.40;1.40;;;;;;;1.17;68.41;101471.69;102274;1318;95316;-76
2021/12/13 08:22:54;;;;;;;1.40;1.40;;;;;;;1.05;69.03;101468.02;102076;1316;139305;-77
2021/12/13 08:25:26;;;;;;;1.40;1.40;;;;;;;1.17;69.51;101471.33;102212;1318;109393;-78
2021/12/13 08:27:58;;;;;;;1.30;1.30;;;;;;;1.21;69.28;101467.07;102214;1320;110170;-77
2021/12/13 08:30:37;;;;;;;1.40;1.40;;;;;;;1.11;69.09;101472.05;102114;1318;139068;-77
2021/12/13 08:33:15;;;;;;;1.40;1.40;;;;;;;1.19;69.95;101474.36;102103;1320;95630;-77
2021/12/13 08:35:51;;;;;;;1.30;1.30;;;;;;;1.17;68.88;101479.08;102119;1317;140649;-77
2021/12/13 08:38:30;;;;;;;1.50;1.50;;;;;;;1.02;69.41;101478.97;102144;1318;110233;-77
2021/12/13 08:41:06;;;;;;;1.40;1.40;;;;;;;1.00;69.58;101474.69;102121;1318;139951;-76
2021/12/13 08:43:48;;;;;;;1.40;1.40;;;;;;;1.00;70.07;101474.35;102160;1319;95762;-77
2021/12/13 08:46:28;;;;;;;1.50;1.50;;;;;;;1.00;69.38;101478.02;102069;1316;140437;-77
2021/12/13 08:48:58;;;;;;;1.50;1.50;;;;;;;0.91;69.75;101478.09;102218;1318;110810;-77
2021/12/13 08:51:29;;;;;;;1.50;1.50;;;;;;;1.03;69.71;101478.45;102272;1317;95290;-77
2021/12/13 08:54:10;;;;;;;1.50;1.50;;;;;;;1.07;69.58;101480.86;102150;1318;139610;-77
2021/12/13 08:56:44;;;;;;;1.40;1.40;;;;;;;1.06;69.21;101485.36;102252;1316;109391;-77
2021/12/13 08:59:26;;;;;;;1.40;1.40;;;;;;;0.88;69.48;101487.44;102146;1317;139262;-77
2021/12/13 09:02:03;;;;;;;1.60;1.60;;;;;;;0.76;69.97;101491.10;102290;1317;95660;-76
2021/12/13 09:04:36;;;;;;;1.50;1.50;;;;;;;0.91;71.08;101488.23;102186;1316;140214;-76
2021/12/13 09:07:07;;;;;;;1.30;1.30;;;;;;;1.24;70.41;101486.27;102213;1318;109403;-76
2021/12/13 09:09:45;;;;;;;1.40;1.40;;;;;;;1.37;68.99;101484.17;102203;1318;110252;-76
2021/12/13 09:12:26;;;;;;;1.50;1.50;;;;;;;1.14;68.97;101486.83;102111;1317;139510;-76
2021/12/13 09:14:56;;;;;;;1.60;1.60;;;;;;;1.06;69.45;101488.69;102124;1318;95717;-76
2021/12/13 09:17:26;;;;;;;1.70;1.70;;;;;;;1.00;69.53;101488.86;102079;1320;139656;-76
2021/12/13 09:20:05;;;;;;;1.30;1.30;;;;;;;1.01;70.08;101486.80;102290;1318;110845;-76
2021/12/13 09:22:37;;;;;;;1.50;1.50;;;;;;;1.04;69.78;101487.92;102073;1318;139962;-72
2021/12/13 09:25:05;;;;;;;1.50;1.50;;;;;;;1.04;69.78;101483.73;102224;1318;95161;-77
2021/12/13 09:27:41;;;;;;;1.40;1.40;;;;;;;1.20;69.67;101481.41;102220;1319;109089;-76
2021/12/13 09:30:11;;;;;;;1.30;1.30;;;;;;;1.28;69.79;101479.71;102088;1318;140016;-77
2021/12/13 09:32:57;;;;;;;1.60;1.60;;;;;;;1.17;69.14;101475.71;102143;1317;95874;-78
2021/12/13 09:35:48;;;;;;;1.50;1.50;;;;;;;0.94;68.98;101476.08;102182;1318;139218;-77
2021/12/13 09:38:28;;;;;;;1.40;1.40;;;;;;;0.90;70.15;101474.58;102331;1316;109460;-77
2021/12/13 09:40:59;;;;;;;1.50;1.50;;;;;;;1.09;69.74;101471.45;102015;1320;140027;-77
2021/12/13 09:43:56;;;;;;;1.50;1.50;;;;;;;1.00;69.46;101470.13;102081;1316;95900;-77
2021/12/13 09:46:29;;;;;;;1.50;1.50;;;;;;;1.06;69.78;101475.23;101843;1318;140254;-77
2021/12/13 09:49:02;;;;;;;1.50;1.50;;;;;;;1.29;69.64;101477.64;101859;1316;109377;-77
2021/12/13 09:51:52;;;;;;;1.50;1.50;;;;;;;1.30;68.72;101474.70;101949;1318;110161;-77
2021/12/13 09:54:25;;;;;;;1.50;1.50;;;;;;;1.32;69.30;101472.48;101701;1318;138131;-77
2021/12/13 09:56:54;;;;;;;1.50;1.50;;;;;;;1.46;69.26;101473.58;101824;1321;95708;-76
2021/12/13 09:59:41;;;;;;;1.30;1.30;;;;;;;1.37;68.39;101475.43;101818;1318;140502;-77
2021/12/13 10:02:32;;;;;;;1.30;1.30;;;;;;;1.12;68.62;101474.69;101741;1318;108210;-77
2021/12/13 10:05:05;;;;;;;1.40;1.40;;;;;;;0.95;69.53;101475.94;101774;1318;139327;-77
2021/12/13 10:07:36;;;;;;;1.40;1.40;;;;;;;0.93;69.91;101477.46;101863;1317;95570;-77
2021/12/13 10:10:16;;;;;;;1.40;1.40;;;;;;;1.09;69.88;101477.92;101687;1318;139879;-78
2021/12/13 10:12:49;;;;;;;1.50;1.50;;;;;;;1.11;69.59;101475.02;101771;1318;110555;-77
2021/12/13 10:15:26;;;;;;;1.50;1.50;;;;;;;1.12;69.36;101477.14;101687;1318;95291;-77
2021/12/13 10:18:11;;;;;;;1.60;1.60;;;;;;;1.19;69.25;101478.22;101497;1318;139155;-77
2021/12/13 10:20:46;;;;;;;1.60;1.60;;;;;;;1.16;68.82;101474.13;101661;1318;110013;-77
2021/12/13 10:23:16;;;;;;;1.40;1.40;;;;;;;1.25;69.62;101480.85;101157;1317;139226;-77
2021/12/13 10:25:47;;;;;;;1.60;1.60;;;;;;;1.29;69.14;101480.98;101488;1316;95780;-77
2021/12/13 10:28:21;;;;;;;1.50;1.50;;;;;;;1.44;69.34;101482.79;101421;1317;139195;-76
2021/12/13 10:30:56;;;;;;;1.60;1.60;;;;;;;1.66;69.15;101482.01;101447;1319;109635;-77
2021/12/13 10:33:27;;;;;;;1.50;1.50;;;;;;;1.74;67.89;101480.30;101497;1320;110558;-77
2021/12/13 10:35:55;;;;;;;1.50;1.50;;;;;;;1.64;67.50;101476.69;101639;1319;139413;-76
2021/12/13 10:38:29;;;;;;;1.60;1.60;;;;;;;1.42;67.83;101484.16;101585;1317;95264;-77
2021/12/13 10:41:04;;;;;;;1.40;1.40;;;;;;;1.23;67.92;101485.69;101497;1317;139994;-77
2021/12/13 10:43:37;;;;;;;1.40;1.40;;;;;;;1.14;68.45;101483.52;101709;1316;109749;-77
2021/12/13 10:46:11;;;;;;;1.50;1.50;;;;;;;1.17;68.96;101487.79;101692;1318;140562;-77
2021/12/13 10:48:45;;;;;;;1.40;1.40;;;;;;;1.20;68.93;101487.52;101959;1317;95264;-77
2021/12/13 10:51:37;;;;;;;1.30;1.30;;;;;;;1.21;68.44;101487.72;101870;1318;109317;-77
2021/12/13 10:54:11;;;;;;;1.40;1.40;;;;;;;1.15;68.60;101487.74;101969;1317;140313;-77
2021/12/13 10:56:49;;;;;;;1.70;1.70;;;;;;;1.11;68.76;101483.58;102017;1318;95186;-77
2021/12/13 10:59:20;;;;;;;1.30;1.30;;;;;;;1.00;68.84;101480.11;102076;1318;139823;-77
2021/12/13 11:01:52;;;;;;;1.40;1.40;;;;;;;0.99;69.32;101469.23;102142;1317;109391;-76
2021/12/13 11:04:25;;;;;;;1.30;1.30;;;;;;;1.04;68.62;101472.88;102233;1318;139528;-76
2021/12/13 11:06:54;;;;;;;1.40;1.40;;;;;;;0.99;69.03;101474.48;102203;1317;96706;-76
2021/12/13 11:09:24;;;;;;;1.40;1.40;;;;;;;0.99;69.37;101470.65;102133;1318;95162;-76
2021/12/13 11:12:41;;;;;;;1.40;1.40;;;;;;;1.05;68.92;101473.80;102029;1318;140315;-77
2021/12/13 11:15:14;;;;;;;1.40;1.40;;;;;;;1.21;69.55;101473.73;102009;1318;109911;-76
2021/12/13 11:17:43;;;;;;;1.40;1.40;;;;;;;1.48;69.21;101475.55;102096;1318;139687;-75
2021/12/13 11:20:17;;;;;;;1.40;1.40;;;;;;;1.70;68.75;101471.96;102209;1317;96307;-76
2021/12/13 11:22:46;;;;;;;1.40;1.40;;;;;;;1.83;67.99;101470.39;102103;1318;139573;-73
2021/12/13 11:25:22;;;;;;;1.30;1.30;;;;;;;1.87;67.89;101470.48;102010;1317;109196;-76
2021/12/13 11:27:50;;;;;;;1.50;1.50;;;;;;;1.88;67.32;101468.05;102149;1318;95264;-76
2021/12/13 11:30:23;;;;;;;1.40;1.40;;;;;;;1.91;67.58;101469.01;101973;1318;140211;-76
2021/12/13 11:32:57;;;;;;;1.40;1.40;;;;;;;2.03;67.43;101464.09;102089;1318;107955;-77
2021/12/13 11:36:03;;;;;;;1.30;1.30;;;;;;;2.13;67.08;101466.27;102037;1317;140430;-77
2021/12/13 11:39:12;;;;;;;1.50;1.50;;;;;;;2.18;67.03;101470.76;102101;1318;96065;-77
2021/12/13 11:41:58;;;;;;;1.30;1.30;;;;;;;2.18;66.71;101473.91;102056;1317;139506;-77
2021/12/13 11:44:36;;;;;;;1.40;1.40;;;;;;;2.13;66.09;101471.69;102153;1317;111138;-77
2021/12/13 11:47:19;;;;;;;1.40;1.40;;;;;;;1.96;66.52;101472.83;102057;1322;137815;-76
2021/12/13 11:50:17;;;;;;;1.50;1.50;;;;;;;1.98;67.27;101475.33;102221;1317;95595;-77
2021/12/13 11:53:22;;;;;;;1.30;1.30;;;;;;;1.96;66.54;101466.17;102025;1318;141244;-77
2021/12/13 11:55:59;;;;;;;1.30;1.30;;;;;;;1.78;66.32;101469.73;102245;1317;109413;-77
2021/12/13 11:58:44;;;;;;;1.40;1.40;;;;;;;1.72;67.45;101471.47;102091;1317;139985;-77
2021/12/13 12:01:40;;;;;;;1.50;1.50;;;;;;;1.77;67.48;101470.73;102184;1318;95200;-77
2021/12/13 12:04:46;;;;;;;1.40;1.40;;;;;;;1.82;67.26;101468.45;102153;1318;139688;-77
2021/12/13 12:07:14;;;;;;;1.40;1.40;;;;;;;1.77;66.71;101469.17;102144;1318;109405;-76